sensor_id;sensor_type;location;lat;lon;timestamp;temperature;humidity
40556;DHT22;26250;45.422;11.100;2024-03-08T00:00:13;11.50;99.90
40556;DHT22;26250;45.422;11.100;2024-03-08T00:02:43;11.40;99.90
40556;DHT22;26250;45.422;11.100;2024-03-08T00:05:11;11.30;99.90
40556;DHT22;26250;45.422;11.100;2024-03-08T00:07:39;11.20;99.90
40556;DHT22;26250;45.422;11.100;2024-03-08T00:10:08;11.10;99.90
40556;DHT22;26250;45.422;11.100;2024-03-08T00:12:41;11.20;99.90
40556;DHT22;26250;45.422;11.100;2024-03-08T00:15:10;11.30;99.90
40556;DHT22;26250;45.422;11.100;2024-03-08T00:17:37;11.10;99.90
40556;DHT22;26250;45.422;11.100;2024-03-08T00:20:05;11.20;99.90
40556;DHT22;26250;45.422;11.100;2024-03-08T00:22:35;11.40;99.90
40556;DHT22;26250;45.422;11.100;2024-03-08T00:25:03;11.30;99.90
40556;DHT22;26250;45.422;11.100;2024-03-08T00:27:31;11.40;99.90
40556;DHT22;26250;45.422;11.100;2024-03-08T00:29:58;11.30;99.90
40556;DHT22;26250;45.422;11.100;2024-03-08T00:32:26;11.20;99.90
40556;DHT22;26250;45.422;11.100;2024-03-08T00:34:54;11.30;99.90
40556;DHT22;26250;45.422;11.100;2024-03-08T00:37:21;11.20;99.90
40556;DHT22;26250;45.422;11.100;2024-03-08T00:39:49;11.30;99.90
40556;DHT22;26250;45.422;11.100;2024-03-08T00:42:17;11.10;99.90
40556;DHT22;26250;45.422;11.100;2024-03-08T00:44:44;11.20;99.90
40556;DHT22;26250;45.422;11.100;2024-03-08T00:47:11;11.20;99.90
40556;DHT22;26250;45.422;11.100;2024-03-08T00:49:41;11.30;99.90
40556;DHT22;26250;45.422;11.100;2024-03-08T00:52:09;11.20;99.90
40556;DHT22;26250;45.422;11.100;2024-03-08T00:54:36;11.40;99.90
40556;DHT22;26250;45.422;11.100;2024-03-08T00:57:03;11.40;99.90
40556;DHT22;26250;45.422;11.100;2024-03-08T00:59:32;11.30;99.90
40556;DHT22;26250;45.422;11.100;2024-03-08T01:02:02;11.10;99.90
40556;DHT22;26250;45.422;11.100;2024-03-08T01:04:29;11.00;99.90
40556;DHT22;26250;45.422;11.100;2024-03-08T01:06:57;11.00;99.90
40556;DHT22;26250;45.422;11.100;2024-03-08T01:09:25;11.10;99.90
40556;DHT22;26250;45.422;11.100;2024-03-08T01:11:54;11.20;99.90
40556;DHT22;26250;45.422;11.100;2024-03-08T01:14:22;11.20;99.90
40556;DHT22;26250;45.422;11.100;2024-03-08T01:16:50;11.30;99.90
40556;DHT22;26250;45.422;11.100;2024-03-08T01:19:17;11.10;99.90
40556;DHT22;26250;45.422;11.100;2024-03-08T01:21:45;11.00;99.90
40556;DHT22;26250;45.422;11.100;2024-03-08T01:24:12;11.20;99.90
40556;DHT22;26250;45.422;11.100;2024-03-08T01:26:39;11.20;99.90
40556;DHT22;26250;45.422;11.100;2024-03-08T01:29:06;11.10;99.90
40556;DHT22;26250;45.422;11.100;2024-03-08T01:31:35;11.10;99.90
40556;DHT22;26250;45.422;11.100;2024-03-08T01:34:03;10.90;99.90
40556;DHT22;26250;45.422;11.100;2024-03-08T01:36:30;11.00;99.90
40556;DHT22;26250;45.422;11.100;2024-03-08T01:38:57;10.90;99.90
40556;DHT22;26250;45.422;11.100;2024-03-08T01:41:24;10.80;99.90
40556;DHT22;26250;45.422;11.100;2024-03-08T01:43:52;10.80;99.90
40556;DHT22;26250;45.422;11.100;2024-03-08T01:46:21;11.00;99.90
40556;DHT22;26250;45.422;11.100;2024-03-08T01:48:49;11.00;99.90
40556;DHT22;26250;45.422;11.100;2024-03-08T01:51:19;11.10;99.90
40556;DHT22;26250;45.422;11.100;2024-03-08T01:53:47;11.20;99.90
40556;DHT22;26250;45.422;11.100;2024-03-08T01:56:15;11.10;99.90
40556;DHT22;26250;45.422;11.100;2024-03-08T01:58:42;11.10;99.90
40556;DHT22;26250;45.422;11.100;2024-03-08T02:01:15;11.00;99.90
40556;DHT22;26250;45.422;11.100;2024-03-08T02:03:43;10.90;99.90
40556;DHT22;26250;45.422;11.100;2024-03-08T02:06:12;10.90;99.90
40556;DHT22;26250;45.422;11.100;2024-03-08T02:08:45;10.80;99.90
40556;DHT22;26250;45.422;11.100;2024-03-08T02:11:13;10.70;99.90
40556;DHT22;26250;45.422;11.100;2024-03-08T02:13:41;10.80;99.90
40556;DHT22;26250;45.422;11.100;2024-03-08T02:16:09;10.80;99.90
40556;DHT22;26250;45.422;11.100;2024-03-08T02:18:36;10.70;99.90
40556;DHT22;26250;45.422;11.100;2024-03-08T02:21:07;10.70;99.90
40556;DHT22;26250;45.422;11.100;2024-03-08T02:23:36;10.60;99.90
40556;DHT22;26250;45.422;11.100;2024-03-08T02:26:04;10.60;99.90
40556;DHT22;26250;45.422;11.100;2024-03-08T02:28:32;10.60;99.90
40556;DHT22;26250;45.422;11.100;2024-03-08T02:30:59;10.70;99.90
40556;DHT22;26250;45.422;11.100;2024-03-08T02:33:27;10.50;99.90
40556;DHT22;26250;45.422;11.100;2024-03-08T02:35:55;10.50;99.90
40556;DHT22;26250;45.422;11.100;2024-03-08T02:38:24;10.50;99.90
40556;DHT22;26250;45.422;11.100;2024-03-08T02:40:53;10.50;99.90
40556;DHT22;26250;45.422;11.100;2024-03-08T02:43:21;10.40;99.90
40556;DHT22;26250;45.422;11.100;2024-03-08T02:45:49;10.50;99.90
40556;DHT22;26250;45.422;11.100;2024-03-08T02:48:16;10.50;99.90
40556;DHT22;26250;45.422;11.100;2024-03-08T02:50:44;10.30;99.90
40556;DHT22;26250;45.422;11.100;2024-03-08T02:53:13;10.30;99.90
40556;DHT22;26250;45.422;11.100;2024-03-08T02:55:41;10.30;99.90
40556;DHT22;26250;45.422;11.100;2024-03-08T02:58:09;10.30;99.90
40556;DHT22;26250;45.422;11.100;2024-03-08T03:00:38;10.30;99.90
40556;DHT22;26250;45.422;11.100;2024-03-08T03:03:08;10.20;99.90
40556;DHT22;26250;45.422;11.100;2024-03-08T03:05:36;10.20;99.90
40556;DHT22;26250;45.422;11.100;2024-03-08T03:08:03;10.10;99.90
40556;DHT22;26250;45.422;11.100;2024-03-08T03:10:36;10.00;99.90
40556;DHT22;26250;45.422;11.100;2024-03-08T03:13:04;10.00;99.90
40556;DHT22;26250;45.422;11.100;2024-03-08T03:15:35;9.90;99.90
40556;DHT22;26250;45.422;11.100;2024-03-08T03:18:04;10.00;99.90
40556;DHT22;26250;45.422;11.100;2024-03-08T03:20:35;9.90;99.90
40556;DHT22;26250;45.422;11.100;2024-03-08T03:23:11;10.00;99.90
40556;DHT22;26250;45.422;11.100;2024-03-08T03:25:42;9.90;99.90
40556;DHT22;26250;45.422;11.100;2024-03-08T03:28:10;10.00;99.90
40556;DHT22;26250;45.422;11.100;2024-03-08T03:30:41;10.00;99.90
40556;DHT22;26250;45.422;11.100;2024-03-08T03:33:08;10.00;99.90
40556;DHT22;26250;45.422;11.100;2024-03-08T03:35:36;9.90;99.90
40556;DHT22;26250;45.422;11.100;2024-03-08T03:38:05;9.90;99.90
40556;DHT22;26250;45.422;11.100;2024-03-08T03:40:38;9.80;99.90
40556;DHT22;26250;45.422;11.100;2024-03-08T03:43:06;9.90;99.90
40556;DHT22;26250;45.422;11.100;2024-03-08T03:45:35;9.90;99.90
40556;DHT22;26250;45.422;11.100;2024-03-08T03:48:05;9.90;99.90
40556;DHT22;26250;45.422;11.100;2024-03-08T03:50:42;9.80;99.90
40556;DHT22;26250;45.422;11.100;2024-03-08T03:53:09;9.80;99.90
40556;DHT22;26250;45.422;11.100;2024-03-08T03:55:37;9.80;99.90
40556;DHT22;26250;45.422;11.100;2024-03-08T03:58:07;9.90;99.90
40556;DHT22;26250;45.422;11.100;2024-03-08T04:00:35;9.80;99.90
40556;DHT22;26250;45.422;11.100;2024-03-08T04:03:02;9.70;99.90
40556;DHT22;26250;45.422;11.100;2024-03-08T04:05:29;9.80;99.90
40556;DHT22;26250;45.422;11.100;2024-03-08T04:07:58;9.90;99.90
40556;DHT22;26250;45.422;11.100;2024-03-08T04:10:25;9.70;99.90
40556;DHT22;26250;45.422;11.100;2024-03-08T04:12:52;9.80;99.90
40556;DHT22;26250;45.422;11.100;2024-03-08T04:15:19;9.90;99.90
40556;DHT22;26250;45.422;11.100;2024-03-08T04:17:47;9.80;99.90
40556;DHT22;26250;45.422;11.100;2024-03-08T04:20:14;9.90;99.90
40556;DHT22;26250;45.422;11.100;2024-03-08T04:22:42;9.70;99.90
40556;DHT22;26250;45.422;11.100;2024-03-08T04:25:11;9.80;99.90
40556;DHT22;26250;45.422;11.100;2024-03-08T04:27:38;9.70;99.90
40556;DHT22;26250;45.422;11.100;2024-03-08T04:30:06;9.60;99.90
40556;DHT22;26250;45.422;11.100;2024-03-08T04:32:36;9.60;99.90
40556;DHT22;26250;45.422;11.100;2024-03-08T04:35:05;9.60;99.90
40556;DHT22;26250;45.422;11.100;2024-03-08T04:37:32;9.70;99.90
40556;DHT22;26250;45.422;11.100;2024-03-08T04:39:59;9.70;99.90
40556;DHT22;26250;45.422;11.100;2024-03-08T04:42:30;9.80;99.90
40556;DHT22;26250;45.422;11.100;2024-03-08T04:45:00;9.70;99.90
40556;DHT22;26250;45.422;11.100;2024-03-08T04:47:27;9.70;99.90
40556;DHT22;26250;45.422;11.100;2024-03-08T04:49:54;9.50;99.90
40556;DHT22;26250;45.422;11.100;2024-03-08T04:52:23;9.50;99.90
40556;DHT22;26250;45.422;11.100;2024-03-08T04:54:50;9.50;99.90
40556;DHT22;26250;45.422;11.100;2024-03-08T04:57:17;9.50;99.90
40556;DHT22;26250;45.422;11.100;2024-03-08T04:59:46;9.60;99.90
40556;DHT22;26250;45.422;11.100;2024-03-08T05:02:13;9.40;99.90
40556;DHT22;26250;45.422;11.100;2024-03-08T05:04:41;9.50;99.90
40556;DHT22;26250;45.422;11.100;2024-03-08T05:07:09;9.30;99.90
40556;DHT22;26250;45.422;11.100;2024-03-08T05:09:36;9.50;99.90
40556;DHT22;26250;45.422;11.100;2024-03-08T05:12:05;9.30;99.90
40556;DHT22;26250;45.422;11.100;2024-03-08T05:14:32;9.30;99.90
40556;DHT22;26250;45.422;11.100;2024-03-08T05:17:01;9.30;99.90
40556;DHT22;26250;45.422;11.100;2024-03-08T05:19:28;9.40;99.90
40556;DHT22;26250;45.422;11.100;2024-03-08T05:22:00;9.20;99.90
40556;DHT22;26250;45.422;11.100;2024-03-08T05:24:28;9.20;99.90
40556;DHT22;26250;45.422;11.100;2024-03-08T05:26:57;9.20;99.90
40556;DHT22;26250;45.422;11.100;2024-03-08T05:29:24;9.20;99.90
40556;DHT22;26250;45.422;11.100;2024-03-08T05:31:51;9.30;99.90
40556;DHT22;26250;45.422;11.100;2024-03-08T05:34:20;9.30;99.90
40556;DHT22;26250;45.422;11.100;2024-03-08T05:36:48;9.20;99.90
40556;DHT22;26250;45.422;11.100;2024-03-08T05:39:19;9.20;99.90
40556;DHT22;26250;45.422;11.100;2024-03-08T05:41:47;9.30;99.90
40556;DHT22;26250;45.422;11.100;2024-03-08T05:44:15;9.30;99.90
40556;DHT22;26250;45.422;11.100;2024-03-08T05:46:44;9.40;99.90
40556;DHT22;26250;45.422;11.100;2024-03-08T05:49:11;9.30;99.90
40556;DHT22;26250;45.422;11.100;2024-03-08T05:51:39;9.30;99.90
40556;DHT22;26250;45.422;11.100;2024-03-08T05:54:08;9.40;99.90
40556;DHT22;26250;45.422;11.100;2024-03-08T05:56:39;9.50;99.90
40556;DHT22;26250;45.422;11.100;2024-03-08T05:59:10;9.40;99.90
40556;DHT22;26250;45.422;11.100;2024-03-08T06:01:37;9.40;99.90
40556;DHT22;26250;45.422;11.100;2024-03-08T06:04:04;9.40;99.90
40556;DHT22;26250;45.422;11.100;2024-03-08T06:06:31;9.30;99.90
40556;DHT22;26250;45.422;11.100;2024-03-08T06:08:59;9.30;99.90
40556;DHT22;26250;45.422;11.100;2024-03-08T06:11:26;9.20;99.90
40556;DHT22;26250;45.422;11.100;2024-03-08T06:13:55;9.20;99.90
40556;DHT22;26250;45.422;11.100;2024-03-08T06:16:27;9.30;99.90
40556;DHT22;26250;45.422;11.100;2024-03-08T06:18:57;9.20;99.90
40556;DHT22;26250;45.422;11.100;2024-03-08T06:21:24;9.20;99.90
40556;DHT22;26250;45.422;11.100;2024-03-08T06:23:55;9.10;99.90
40556;DHT22;26250;45.422;11.100;2024-03-08T06:26:25;8.90;99.90
40556;DHT22;26250;45.422;11.100;2024-03-08T06:28:56;9.00;99.90
40556;DHT22;26250;45.422;11.100;2024-03-08T06:31:24;9.10;99.90
40556;DHT22;26250;45.422;11.100;2024-03-08T06:33:51;9.00;99.90
40556;DHT22;26250;45.422;11.100;2024-03-08T06:36:22;9.00;99.90
40556;DHT22;26250;45.422;11.100;2024-03-08T06:38:50;9.00;99.90
40556;DHT22;26250;45.422;11.100;2024-03-08T06:41:18;9.10;99.90
40556;DHT22;26250;45.422;11.100;2024-03-08T06:43:46;9.00;99.90
40556;DHT22;26250;45.422;11.100;2024-03-08T06:46:15;9.10;99.90
40556;DHT22;26250;45.422;11.100;2024-03-08T06:48:43;9.20;99.90
40556;DHT22;26250;45.422;11.100;2024-03-08T06:51:10;9.10;99.90
40556;DHT22;26250;45.422;11.100;2024-03-08T06:53:38;9.10;99.90
40556;DHT22;26250;45.422;11.100;2024-03-08T06:56:06;9.30;99.90
40556;DHT22;26250;45.422;11.100;2024-03-08T06:58:34;9.30;99.90
40556;DHT22;26250;45.422;11.100;2024-03-08T07:01:01;9.40;99.90
40556;DHT22;26250;45.422;11.100;2024-03-08T07:03:31;9.30;99.90
40556;DHT22;26250;45.422;11.100;2024-03-08T07:05:59;9.30;99.90
40556;DHT22;26250;45.422;11.100;2024-03-08T07:08:28;9.20;99.90
40556;DHT22;26250;45.422;11.100;2024-03-08T07:10:56;9.20;99.90
40556;DHT22;26250;45.422;11.100;2024-03-08T07:13:26;9.20;99.90
40556;DHT22;26250;45.422;11.100;2024-03-08T07:15:55;9.30;99.90
40556;DHT22;26250;45.422;11.100;2024-03-08T07:18:22;9.40;99.90
40556;DHT22;26250;45.422;11.100;2024-03-08T07:20:49;9.40;99.90
40556;DHT22;26250;45.422;11.100;2024-03-08T07:23:16;9.40;99.90
40556;DHT22;26250;45.422;11.100;2024-03-08T07:26:04;9.40;99.90
40556;DHT22;26250;45.422;11.100;2024-03-08T07:28:31;9.50;99.90
40556;DHT22;26250;45.422;11.100;2024-03-08T07:30:59;9.50;99.90
40556;DHT22;26250;45.422;11.100;2024-03-08T07:33:44;9.70;99.90
40556;DHT22;26250;45.422;11.100;2024-03-08T07:36:12;9.90;99.90
40556;DHT22;26250;45.422;11.100;2024-03-08T07:38:39;9.80;99.90
40556;DHT22;26250;45.422;11.100;2024-03-08T07:41:06;9.70;99.90
40556;DHT22;26250;45.422;11.100;2024-03-08T07:43:33;9.70;99.90
40556;DHT22;26250;45.422;11.100;2024-03-08T07:46:00;9.70;99.90
40556;DHT22;26250;45.422;11.100;2024-03-08T07:48:27;9.80;99.90
40556;DHT22;26250;45.422;11.100;2024-03-08T07:50:55;9.90;99.90
40556;DHT22;26250;45.422;11.100;2024-03-08T07:53:22;9.60;99.90
40556;DHT22;26250;45.422;11.100;2024-03-08T07:55:52;9.60;99.90
40556;DHT22;26250;45.422;11.100;2024-03-08T07:58:19;9.70;99.90
40556;DHT22;26250;45.422;11.100;2024-03-08T08:00:46;9.60;99.90
40556;DHT22;26250;45.422;11.100;2024-03-08T08:03:13;9.70;99.90
40556;DHT22;26250;45.422;11.100;2024-03-08T08:05:40;9.80;99.90
40556;DHT22;26250;45.422;11.100;2024-03-08T08:08:08;9.90;99.90
40556;DHT22;26250;45.422;11.100;2024-03-08T08:10:38;9.90;99.90
40556;DHT22;26250;45.422;11.100;2024-03-08T08:13:06;9.90;99.90
40556;DHT22;26250;45.422;11.100;2024-03-08T08:15:33;9.70;99.90
40556;DHT22;26250;45.422;11.100;2024-03-08T08:18:03;9.80;99.90
40556;DHT22;26250;45.422;11.100;2024-03-08T08:20:33;9.70;99.90
40556;DHT22;26250;45.422;11.100;2024-03-08T08:23:00;9.60;99.90
40556;DHT22;26250;45.422;11.100;2024-03-08T08:25:27;9.50;99.90
40556;DHT22;26250;45.422;11.100;2024-03-08T08:27:54;9.60;99.90
40556;DHT22;26250;45.422;11.100;2024-03-08T08:30:21;9.60;99.90
40556;DHT22;26250;45.422;11.100;2024-03-08T08:32:48;9.60;99.90
40556;DHT22;26250;45.422;11.100;2024-03-08T08:35:16;9.50;99.90
40556;DHT22;26250;45.422;11.100;2024-03-08T08:37:45;9.60;99.90
40556;DHT22;26250;45.422;11.100;2024-03-08T08:40:12;9.60;99.90
40556;DHT22;26250;45.422;11.100;2024-03-08T08:42:42;9.60;99.90
40556;DHT22;26250;45.422;11.100;2024-03-08T08:45:10;9.60;99.90
40556;DHT22;26250;45.422;11.100;2024-03-08T08:47:44;9.60;99.90
40556;DHT22;26250;45.422;11.100;2024-03-08T08:50:12;9.70;99.90
40556;DHT22;26250;45.422;11.100;2024-03-08T08:52:40;9.60;99.90
40556;DHT22;26250;45.422;11.100;2024-03-08T08:55:08;9.70;99.90
40556;DHT22;26250;45.422;11.100;2024-03-08T08:57:35;9.70;99.90
40556;DHT22;26250;45.422;11.100;2024-03-08T09:00:03;9.90;99.90
40556;DHT22;26250;45.422;11.100;2024-03-08T09:02:42;10.00;99.90
40556;DHT22;26250;45.422;11.100;2024-03-08T09:05:10;10.20;99.90
40556;DHT22;26250;45.422;11.100;2024-03-08T09:07:38;10.00;99.90
40556;DHT22;26250;45.422;11.100;2024-03-08T09:10:06;10.20;99.90
40556;DHT22;26250;45.422;11.100;2024-03-08T09:12:39;10.20;99.90
40556;DHT22;26250;45.422;11.100;2024-03-08T09:15:07;10.30;99.90
40556;DHT22;26250;45.422;11.100;2024-03-08T09:17:41;10.30;99.90
40556;DHT22;26250;45.422;11.100;2024-03-08T09:20:10;10.20;99.90
40556;DHT22;26250;45.422;11.100;2024-03-08T09:22:37;10.40;99.90
40556;DHT22;26250;45.422;11.100;2024-03-08T09:25:05;10.50;99.90
40556;DHT22;26250;45.422;11.100;2024-03-08T09:27:34;10.80;99.90
40556;DHT22;26250;45.422;11.100;2024-03-08T09:30:06;10.80;99.90
40556;DHT22;26250;45.422;11.100;2024-03-08T09:32:33;10.20;99.90
40556;DHT22;26250;45.422;11.100;2024-03-08T09:35:01;10.30;99.90
40556;DHT22;26250;45.422;11.100;2024-03-08T09:37:28;10.40;99.90
40556;DHT22;26250;45.422;11.100;2024-03-08T09:39:55;10.70;99.90
40556;DHT22;26250;45.422;11.100;2024-03-08T09:42:22;10.60;99.90
40556;DHT22;26250;45.422;11.100;2024-03-08T09:44:50;11.10;99.90
40556;DHT22;26250;45.422;11.100;2024-03-08T09:47:18;11.00;99.90
40556;DHT22;26250;45.422;11.100;2024-03-08T09:49:45;10.80;99.90
40556;DHT22;26250;45.422;11.100;2024-03-08T09:52:13;10.80;99.90
40556;DHT22;26250;45.422;11.100;2024-03-08T09:54:41;10.60;99.90
40556;DHT22;26250;45.422;11.100;2024-03-08T09:57:11;11.00;99.90
40556;DHT22;26250;45.422;11.100;2024-03-08T09:59:38;10.70;99.90
40556;DHT22;26250;45.422;11.100;2024-03-08T10:02:05;10.70;99.90
40556;DHT22;26250;45.422;11.100;2024-03-08T10:04:33;10.60;99.90
40556;DHT22;26250;45.422;11.100;2024-03-08T10:07:03;10.70;99.90
40556;DHT22;26250;45.422;11.100;2024-03-08T10:09:30;10.50;99.90
40556;DHT22;26250;45.422;11.100;2024-03-08T10:11:57;10.70;99.90
40556;DHT22;26250;45.422;11.100;2024-03-08T10:14:25;10.70;99.90
40556;DHT22;26250;45.422;11.100;2024-03-08T10:16:55;10.60;99.90
40556;DHT22;26250;45.422;11.100;2024-03-08T10:19:27;10.60;99.90
40556;DHT22;26250;45.422;11.100;2024-03-08T10:21:57;10.60;99.90
40556;DHT22;26250;45.422;11.100;2024-03-08T10:24:26;10.40;99.90
40556;DHT22;26250;45.422;11.100;2024-03-08T10:26:55;10.30;99.90
40556;DHT22;26250;45.422;11.100;2024-03-08T10:29:25;10.50;99.90
40556;DHT22;26250;45.422;11.100;2024-03-08T10:31:52;10.40;99.90
40556;DHT22;26250;45.422;11.100;2024-03-08T10:34:19;10.30;99.90
40556;DHT22;26250;45.422;11.100;2024-03-08T10:36:50;10.30;99.90
40556;DHT22;26250;45.422;11.100;2024-03-08T10:39:23;10.30;99.90
40556;DHT22;26250;45.422;11.100;2024-03-08T10:41:58;10.50;99.90
40556;DHT22;26250;45.422;11.100;2024-03-08T10:49:38;10.50;99.90
40556;DHT22;26250;45.422;11.100;2024-03-08T10:52:06;10.60;99.90
40556;DHT22;26250;45.422;11.100;2024-03-08T10:54:37;10.60;99.90
40556;DHT22;26250;45.422;11.100;2024-03-08T10:57:13;10.60;99.90
40556;DHT22;26250;45.422;11.100;2024-03-08T10:59:42;10.50;99.90
40556;DHT22;26250;45.422;11.100;2024-03-08T11:02:12;10.40;99.90
40556;DHT22;26250;45.422;11.100;2024-03-08T11:04:41;10.20;99.90
40556;DHT22;26250;45.422;11.100;2024-03-08T11:07:12;10.30;99.90
40556;DHT22;26250;45.422;11.100;2024-03-08T11:09:44;10.60;99.90
40556;DHT22;26250;45.422;11.100;2024-03-08T11:14:50;10.50;99.90
40556;DHT22;26250;45.422;11.100;2024-03-08T11:20:00;10.10;99.90
40556;DHT22;26250;45.422;11.100;2024-03-08T11:22:31;10.20;99.90
40556;DHT22;26250;45.422;11.100;2024-03-08T11:25:08;10.10;99.90
40556;DHT22;26250;45.422;11.100;2024-03-08T11:27:52;10.10;99.90
40556;DHT22;26250;45.422;11.100;2024-03-08T11:30:22;9.90;99.90
40556;DHT22;26250;45.422;11.100;2024-03-08T11:32:51;10.00;99.90
40556;DHT22;26250;45.422;11.100;2024-03-08T11:35:21;9.90;99.90
40556;DHT22;26250;45.422;11.100;2024-03-08T11:37:50;10.00;99.90
40556;DHT22;26250;45.422;11.100;2024-03-08T11:40:18;10.20;99.90
40556;DHT22;26250;45.422;11.100;2024-03-08T11:42:49;10.30;99.90
40556;DHT22;26250;45.422;11.100;2024-03-08T11:45:18;10.30;99.90
40556;DHT22;26250;45.422;11.100;2024-03-08T11:47:48;10.30;99.90
40556;DHT22;26250;45.422;11.100;2024-03-08T11:50:18;10.40;99.90
40556;DHT22;26250;45.422;11.100;2024-03-08T11:52:53;10.30;99.90
40556;DHT22;26250;45.422;11.100;2024-03-08T11:55:21;10.20;99.90
40556;DHT22;26250;45.422;11.100;2024-03-08T11:58:00;10.40;99.90
40556;DHT22;26250;45.422;11.100;2024-03-08T12:00:27;10.40;99.90
40556;DHT22;26250;45.422;11.100;2024-03-08T12:03:06;10.60;99.90
40556;DHT22;26250;45.422;11.100;2024-03-08T12:05:34;10.30;99.90
40556;DHT22;26250;45.422;11.100;2024-03-08T12:08:02;10.50;99.90
40556;DHT22;26250;45.422;11.100;2024-03-08T12:10:30;10.60;99.90
40556;DHT22;26250;45.422;11.100;2024-03-08T12:12:58;10.70;99.90
40556;DHT22;26250;45.422;11.100;2024-03-08T12:15:31;10.70;99.90
40556;DHT22;26250;45.422;11.100;2024-03-08T12:18:01;10.60;99.90
40556;DHT22;26250;45.422;11.100;2024-03-08T12:20:29;10.50;99.90
40556;DHT22;26250;45.422;11.100;2024-03-08T12:22:57;10.50;99.90
40556;DHT22;26250;45.422;11.100;2024-03-08T12:25:33;10.50;99.90
40556;DHT22;26250;45.422;11.100;2024-03-08T12:28:10;10.60;99.90
40556;DHT22;26250;45.422;11.100;2024-03-08T12:30:51;10.60;99.90
40556;DHT22;26250;45.422;11.100;2024-03-08T12:33:21;10.70;99.90
40556;DHT22;26250;45.422;11.100;2024-03-08T12:35:53;10.80;99.90
40556;DHT22;26250;45.422;11.100;2024-03-08T12:38:22;10.80;99.90
40556;DHT22;26250;45.422;11.100;2024-03-08T12:40:58;10.80;99.90
40556;DHT22;26250;45.422;11.100;2024-03-08T12:43:26;10.80;99.90
40556;DHT22;26250;45.422;11.100;2024-03-08T12:45:57;11.00;99.90
40556;DHT22;26250;45.422;11.100;2024-03-08T12:48:24;11.00;99.90
40556;DHT22;26250;45.422;11.100;2024-03-08T12:50:51;11.10;99.90
40556;DHT22;26250;45.422;11.100;2024-03-08T12:53:20;11.00;99.90
40556;DHT22;26250;45.422;11.100;2024-03-08T12:55:50;11.00;99.90
40556;DHT22;26250;45.422;11.100;2024-03-08T12:58:17;10.90;99.90
40556;DHT22;26250;45.422;11.100;2024-03-08T13:00:44;10.70;99.90
40556;DHT22;26250;45.422;11.100;2024-03-08T13:03:12;10.80;99.90
40556;DHT22;26250;45.422;11.100;2024-03-08T13:05:39;10.90;99.90
40556;DHT22;26250;45.422;11.100;2024-03-08T13:08:07;10.90;99.90
40556;DHT22;26250;45.422;11.100;2024-03-08T13:10:40;11.10;99.90
40556;DHT22;26250;45.422;11.100;2024-03-08T13:13:11;11.20;99.90
40556;DHT22;26250;45.422;11.100;2024-03-08T13:15:44;11.00;99.90
40556;DHT22;26250;45.422;11.100;2024-03-08T13:18:12;11.10;99.90
40556;DHT22;26250;45.422;11.100;2024-03-08T13:20:39;10.90;99.90
40556;DHT22;26250;45.422;11.100;2024-03-08T13:23:14;11.10;99.90
40556;DHT22;26250;45.422;11.100;2024-03-08T13:25:41;11.20;99.90
40556;DHT22;26250;45.422;11.100;2024-03-08T13:28:09;11.00;99.90
40556;DHT22;26250;45.422;11.100;2024-03-08T13:30:36;10.90;99.90
40556;DHT22;26250;45.422;11.100;2024-03-08T13:33:03;11.10;99.90
40556;DHT22;26250;45.422;11.100;2024-03-08T13:35:32;11.00;99.90
40556;DHT22;26250;45.422;11.100;2024-03-08T13:38:00;10.90;99.90
40556;DHT22;26250;45.422;11.100;2024-03-08T13:40:30;10.80;99.90
40556;DHT22;26250;45.422;11.100;2024-03-08T13:42:57;10.70;99.90
40556;DHT22;26250;45.422;11.100;2024-03-08T13:45:28;10.70;99.90
40556;DHT22;26250;45.422;11.100;2024-03-08T13:47:55;10.70;99.90
40556;DHT22;26250;45.422;11.100;2024-03-08T13:50:22;10.90;99.90
40556;DHT22;26250;45.422;11.100;2024-03-08T13:52:50;10.90;99.90
40556;DHT22;26250;45.422;11.100;2024-03-08T13:55:23;10.80;99.90
40556;DHT22;26250;45.422;11.100;2024-03-08T13:57:53;10.70;99.90
40556;DHT22;26250;45.422;11.100;2024-03-08T14:00:20;10.70;99.90
40556;DHT22;26250;45.422;11.100;2024-03-08T14:02:54;10.80;99.90
40556;DHT22;26250;45.422;11.100;2024-03-08T14:05:21;10.60;99.90
40556;DHT22;26250;45.422;11.100;2024-03-08T14:07:48;10.50;99.90
40556;DHT22;26250;45.422;11.100;2024-03-08T14:10:17;10.50;99.90
40556;DHT22;26250;45.422;11.100;2024-03-08T14:12:48;10.50;99.90
40556;DHT22;26250;45.422;11.100;2024-03-08T14:15:17;10.50;99.90
40556;DHT22;26250;45.422;11.100;2024-03-08T14:17:44;10.40;99.90
40556;DHT22;26250;45.422;11.100;2024-03-08T14:20:14;10.40;99.90
40556;DHT22;26250;45.422;11.100;2024-03-08T14:22:41;10.30;99.90
40556;DHT22;26250;45.422;11.100;2024-03-08T14:25:08;10.40;99.90
40556;DHT22;26250;45.422;11.100;2024-03-08T14:27:45;10.40;99.90
40556;DHT22;26250;45.422;11.100;2024-03-08T14:30:13;10.40;99.90
40556;DHT22;26250;45.422;11.100;2024-03-08T14:32:40;10.40;99.90
40556;DHT22;26250;45.422;11.100;2024-03-08T14:35:12;10.40;99.90
40556;DHT22;26250;45.422;11.100;2024-03-08T14:37:39;10.40;99.90
40556;DHT22;26250;45.422;11.100;2024-03-08T14:40:06;10.50;99.90
40556;DHT22;26250;45.422;11.100;2024-03-08T14:42:35;10.40;99.90
40556;DHT22;26250;45.422;11.100;2024-03-08T14:45:03;10.50;99.90
40556;DHT22;26250;45.422;11.100;2024-03-08T14:47:30;10.40;99.90
40556;DHT22;26250;45.422;11.100;2024-03-08T14:49:58;10.40;99.90
40556;DHT22;26250;45.422;11.100;2024-03-08T14:52:25;10.50;99.90
40556;DHT22;26250;45.422;11.100;2024-03-08T14:54:55;10.40;99.90
40556;DHT22;26250;45.422;11.100;2024-03-08T14:57:23;10.50;99.90
40556;DHT22;26250;45.422;11.100;2024-03-08T14:59:50;10.50;99.90
40556;DHT22;26250;45.422;11.100;2024-03-08T15:02:17;10.60;99.90
40556;DHT22;26250;45.422;11.100;2024-03-08T15:04:49;10.50;99.90
40556;DHT22;26250;45.422;11.100;2024-03-08T15:07:24;10.60;99.90
40556;DHT22;26250;45.422;11.100;2024-03-08T15:09:57;10.40;99.90
40556;DHT22;26250;45.422;11.100;2024-03-08T15:12:24;10.40;99.90
40556;DHT22;26250;45.422;11.100;2024-03-08T15:14:53;10.50;99.90
40556;DHT22;26250;45.422;11.100;2024-03-08T15:17:22;10.50;99.90
40556;DHT22;26250;45.422;11.100;2024-03-08T15:19:50;10.30;99.90
40556;DHT22;26250;45.422;11.100;2024-03-08T15:22:17;10.40;99.90
40556;DHT22;26250;45.422;11.100;2024-03-08T15:24:45;10.50;99.90
40556;DHT22;26250;45.422;11.100;2024-03-08T15:27:12;10.40;99.90
40556;DHT22;26250;45.422;11.100;2024-03-08T15:29:39;10.40;99.90
40556;DHT22;26250;45.422;11.100;2024-03-08T15:32:07;10.40;99.90
40556;DHT22;26250;45.422;11.100;2024-03-08T15:34:36;10.40;99.90
40556;DHT22;26250;45.422;11.100;2024-03-08T15:37:05;10.40;99.90
40556;DHT22;26250;45.422;11.100;2024-03-08T15:39:33;10.20;99.90
40556;DHT22;26250;45.422;11.100;2024-03-08T15:42:01;9.90;99.90